Time;durP1;ratioP1;P1;durP2;ratioP2;P2;SDS_P1;SDS_P2;PMS_P1;PMS_P2;Temp;Humidity;BMP_temperature;BMP_pressure;BME280_temperature;BME280_humidity;BME280_pressure;Samples;Min_cycle;Max_cycle;Signal;HPM_P1;HPM_P2
2022/07/25 00:00:25;;;;;;;5.28;3.67;;;;;;;;;;5096818;28;20255;-59
2022/07/25 00:03:02;;;;;;;5.25;3.53;;;;;;;;;;5095660;28;20229;-59
2022/07/25 00:05:30;;;;;;;4.20;3.25;;;;;;;;;;5096797;28;20213;-59
2022/07/25 00:08:03;;;;;;;4.57;3.42;;;;;;;;;;5097133;28;20538;-59
2022/07/25 00:10:31;;;;;;;6.18;3.70;;;;;;;;;;5096745;28;20263;-59
2022/07/25 00:12:57;;;;;;;4.38;3.15;;;;;;;;;;5097013;28;20213;-59
2022/07/25 00:15:24;;;;;;;5.38;3.67;;;;;;;;;;5096633;28;20275;-60
2022/07/25 00:17:51;;;;;;;7.45;3.70;;;;;;;;;;5096638;28;20614;-59
2022/07/25 00:20:18;;;;;;;4.72;3.55;;;;;;;;;;5096464;28;20232;-60
2022/07/25 00:22:45;;;;;;;6.45;3.40;;;;;;;;;;5096557;28;20223;-59
2022/07/25 00:25:13;;;;;;;6.03;3.28;;;;;;;;;;5096597;28;20214;-59
2022/07/25 00:27:40;;;;;;;5.90;3.35;;;;;;;;;;5096665;28;20202;-59
2022/07/25 00:30:07;;;;;;;4.70;3.70;;;;;;;;;;5096666;28;20206;-59
2022/07/25 00:32:34;;;;;;;8.82;3.53;;;;;;;;;;5096502;28;20207;-60
2022/07/25 00:35:01;;;;;;;3.80;3.40;;;;;;;;;;5096623;28;20554;-60
2022/07/25 00:37:28;;;;;;;3.67;3.30;;;;;;;;;;5096305;28;20272;-59
2022/07/25 00:39:55;;;;;;;7.15;3.80;;;;;;;;;;5096347;28;20213;-59
2022/07/25 00:42:23;;;;;;;4.47;3.50;;;;;;;;;;5096280;28;20195;-59
2022/07/25 00:44:51;;;;;;;4.57;3.83;;;;;;;;;;5096222;28;20209;-60
2022/07/25 00:47:18;;;;;;;6.57;4.25;;;;;;;;;;5095903;28;20207;-59
2022/07/25 00:49:44;;;;;;;7.00;4.45;;;;;;;;;;5095926;28;20190;-59
2022/07/25 00:52:11;;;;;;;4.63;3.88;;;;;;;;;;5096202;28;20263;-59
2022/07/25 00:54:39;;;;;;;6.97;4.68;;;;;;;;;;5094899;28;20637;-59
2022/07/25 00:57:06;;;;;;;12.25;4.22;;;;;;;;;;5095159;28;20198;-59
2022/07/25 00:59:33;;;;;;;4.40;3.70;;;;;;;;;;5096191;28;20295;-60
2022/07/25 01:02:00;;;;;;;6.57;3.92;;;;;;;;;;5096087;28;20191;-59
2022/07/25 01:04:29;;;;;;;8.30;4.00;;;;;;;;;;5095667;28;20222;-59
2022/07/25 01:06:57;;;;;;;4.93;3.55;;;;;;;;;;5096096;28;20237;-60
2022/07/25 01:09:25;;;;;;;6.88;3.90;;;;;;;;;;5095520;28;20632;-60
2022/07/25 01:11:52;;;;;;;5.68;3.85;;;;;;;;;;5095422;28;20697;-59
2022/07/25 01:14:19;;;;;;;8.02;3.72;;;;;;;;;;5096342;28;20222;-59
2022/07/25 01:16:47;;;;;;;5.45;3.97;;;;;;;;;;5095364;28;20518;-60
2022/07/25 01:19:14;;;;;;;4.20;3.80;;;;;;;;;;5095307;28;20194;-60
2022/07/25 01:21:42;;;;;;;14.88;4.20;;;;;;;;;;5095636;28;20219;-59
2022/07/25 01:24:09;;;;;;;7.72;3.55;;;;;;;;;;5095163;28;20222;-59
2022/07/25 01:26:37;;;;;;;5.35;3.80;;;;;;;;;;5095466;28;20652;-59
2022/07/25 01:29:04;;;;;;;4.50;3.90;;;;;;;;;;5095117;28;20587;-59
2022/07/25 01:31:31;;;;;;;4.10;3.42;;;;;;;;;;5095240;28;20644;-60
2022/07/25 01:33:58;;;;;;;6.80;3.50;;;;;;;;;;5095475;28;20217;-60
2022/07/25 01:36:25;;;;;;;5.43;3.78;;;;;;;;;;5095313;28;20613;-59
2022/07/25 01:38:52;;;;;;;4.78;3.60;;;;;;;;;;5095040;28;20637;-58
2022/07/25 01:41:20;;;;;;;10.77;4.10;;;;;;;;;;5095011;28;20700;-59
2022/07/25 01:43:48;;;;;;;7.05;4.00;;;;;;;;;;5095513;28;20214;-59
2022/07/25 01:46:16;;;;;;;6.65;4.10;;;;;;;;;;5095309;28;20197;-59
2022/07/25 01:48:43;;;;;;;5.95;3.88;;;;;;;;;;5094959;28;20217;-59
2022/07/25 01:51:10;;;;;;;4.22;3.80;;;;;;;;;;5094019;28;20281;-59
2022/07/25 01:53:37;;;;;;;6.03;3.60;;;;;;;;;;5095123;28;20202;-59
2022/07/25 01:56:05;;;;;;;5.65;3.65;;;;;;;;;;5095317;28;20210;-59
2022/07/25 01:58:34;;;;;;;6.43;3.30;;;;;;;;;;5094744;28;20235;-59
2022/07/25 02:01:01;;;;;;;4.35;3.03;;;;;;;;;;5095298;28;20202;-59
2022/07/25 02:03:28;;;;;;;5.65;3.47;;;;;;;;;;5094641;28;20253;-59
2022/07/25 02:06:01;;;;;;;4.63;3.65;;;;;;;;;;5094452;28;20210;-59
2022/07/25 02:08:29;;;;;;;6.90;3.03;;;;;;;;;;5094565;28;20199;-59
2022/07/25 02:10:57;;;;;;;5.07;3.20;;;;;;;;;;5094435;28;20652;-58
2022/07/25 02:13:24;;;;;;;10.27;3.47;;;;;;;;;;5094553;28;20214;-59
2022/07/25 02:15:51;;;;;;;5.90;3.33;;;;;;;;;;5094474;28;20272;-59
2022/07/25 02:18:18;;;;;;;6.15;3.28;;;;;;;;;;5094421;28;20207;-59
2022/07/25 02:20:45;;;;;;;7.63;3.03;;;;;;;;;;5094693;28;20194;-59
2022/07/25 02:23:13;;;;;;;8.32;3.53;;;;;;;;;;5094543;28;20237;-59
2022/07/25 02:25:40;;;;;;;9.68;4.20;;;;;;;;;;5094554;28;20208;-59
2022/07/25 02:28:06;;;;;;;5.57;3.97;;;;;;;;;;5094857;28;20194;-59
2022/07/25 02:30:37;;;;;;;6.80;3.97;;;;;;;;;;5094561;28;20203;-59
2022/07/25 02:33:04;;;;;;;4.63;3.95;;;;;;;;;;5094161;28;20717;-58
2022/07/25 02:35:31;;;;;;;6.25;4.30;;;;;;;;;;5094561;28;20233;-59
2022/07/25 02:37:58;;;;;;;6.10;4.13;;;;;;;;;;5094656;28;20209;-59
2022/07/25 02:40:25;;;;;;;6.93;3.60;;;;;;;;;;5094416;28;20720;-59
2022/07/25 02:42:52;;;;;;;6.40;3.83;;;;;;;;;;5094563;28;20252;-59
2022/07/25 02:45:20;;;;;;;4.22;3.65;;;;;;;;;;5094324;28;20234;-59
2022/07/25 02:47:47;;;;;;;4.13;3.65;;;;;;;;;;5094402;28;20210;-58
2022/07/25 02:50:14;;;;;;;4.15;3.22;;;;;;;;;;5094308;28;20224;-59
2022/07/25 02:52:42;;;;;;;6.32;4.20;;;;;;;;;;5094242;28;20199;-59
2022/07/25 02:55:10;;;;;;;5.43;3.00;;;;;;;;;;5094215;28;20268;-59
2022/07/25 02:57:37;;;;;;;5.35;2.80;;;;;;;;;;5094098;28;20209;-59
2022/07/25 03:00:05;;;;;;;4.57;3.13;;;;;;;;;;5094423;28;20234;-59
2022/07/25 03:02:32;;;;;;;8.63;3.78;;;;;;;;;;5094253;28;20207;-58
2022/07/25 03:04:59;;;;;;;4.82;3.58;;;;;;;;;;5094117;28;20254;-59
2022/07/25 03:07:26;;;;;;;4.82;3.75;;;;;;;;;;5094172;28;20202;-59
2022/07/25 03:09:53;;;;;;;5.13;3.85;;;;;;;;;;5094271;28;20195;-59
2022/07/25 03:12:19;;;;;;;4.75;3.88;;;;;;;;;;5094454;28;20272;-59
2022/07/25 03:14:47;;;;;;;6.15;3.72;;;;;;;;;;5094087;28;20214;-59
2022/07/25 03:17:14;;;;;;;6.57;3.70;;;;;;;;;;5095763;28;20237;-59
2022/07/25 03:19:41;;;;;;;9.07;4.22;;;;;;;;;;5098028;28;20270;-59
2022/07/25 03:22:08;;;;;;;7.03;3.67;;;;;;;;;;5097584;28;20199;-59
2022/07/25 03:24:49;;;;;;;5.10;3.85;;;;;;;;;;5096799;28;20276;-59
2022/07/25 03:27:16;;;;;;;6.90;4.30;;;;;;;;;;5097737;28;20683;-59
2022/07/25 03:29:43;;;;;;;4.82;3.78;;;;;;;;;;5097817;28;20233;-59
2022/07/25 03:32:10;;;;;;;7.22;3.97;;;;;;;;;;5096271;28;20205;-59
2022/07/25 03:34:38;;;;;;;6.95;4.15;;;;;;;;;;5097494;28;20244;-55
2022/07/25 03:37:05;;;;;;;4.43;3.83;;;;;;;;;;5097456;28;20202;-56
2022/07/25 03:39:32;;;;;;;5.47;3.95;;;;;;;;;;5097165;28;20637;-56
2022/07/25 03:41:59;;;;;;;7.50;4.28;;;;;;;;;;5095555;28;20633;-54
2022/07/25 03:44:26;;;;;;;5.95;4.40;;;;;;;;;;5077189;28;20223;-53
2022/07/25 03:46:53;;;;;;;5.70;4.15;;;;;;;;;;5077696;28;20195;-55
2022/07/25 03:49:20;;;;;;;6.60;4.60;;;;;;;;;;5077312;28;20274;-54
2022/07/25 03:51:47;;;;;;;6.30;3.90;;;;;;;;;;5076692;28;20207;-53
2022/07/25 03:54:14;;;;;;;9.40;4.93;;;;;;;;;;5076840;28;20203;-57
2022/07/25 03:56:42;;;;;;;7.13;4.82;;;;;;;;;;5076758;28;20707;-54
2022/07/25 03:59:12;;;;;;;7.07;5.38;;;;;;;;;;5076582;28;20556;-56
2022/07/25 04:01:39;;;;;;;6.43;5.03;;;;;;;;;;5075777;28;20645;-58
2022/07/25 04:04:08;;;;;;;8.90;5.40;;;;;;;;;;5076710;28;20619;-57
2022/07/25 04:06:36;;;;;;;10.75;5.50;;;;;;;;;;5074074;28;20224;-56
2022/07/25 04:09:03;;;;;;;10.43;5.60;;;;;;;;;;5075728;28;20272;-53
2022/07/25 04:11:30;;;;;;;8.13;5.55;;;;;;;;;;5075936;28;20239;-57
2022/07/25 04:13:57;;;;;;;7.65;5.30;;;;;;;;;;5075500;28;20237;-56
2022/07/25 04:16:24;;;;;;;6.78;5.13;;;;;;;;;;5075662;28;20272;-55
2022/07/25 04:18:54;;;;;;;9.43;5.93;;;;;;;;;;5074957;28;20582;-58
2022/07/25 04:21:23;;;;;;;7.45;6.18;;;;;;;;;;5075509;28;20258;-56
2022/07/25 04:23:50;;;;;;;7.03;5.78;;;;;;;;;;5074888;28;20666;-55
2022/07/25 04:26:18;;;;;;;8.18;5.85;;;;;;;;;;5075695;28;20292;-58
2022/07/25 04:28:46;;;;;;;8.60;5.88;;;;;;;;;;5074825;28;20657;-56
2022/07/25 04:31:13;;;;;;;7.97;5.97;;;;;;;;;;5075401;28;20572;-57
2022/07/25 04:33:40;;;;;;;6.97;5.72;;;;;;;;;;5075322;28;20242;-58
2022/07/25 04:36:08;;;;;;;9.23;5.85;;;;;;;;;;5074037;28;20224;-58
2022/07/25 04:38:36;;;;;;;6.88;5.75;;;;;;;;;;5075113;28;20231;-57
2022/07/25 04:41:03;;;;;;;7.82;5.88;;;;;;;;;;5075238;28;20277;-56
2022/07/25 04:43:30;;;;;;;9.15;5.85;;;;;;;;;;5074909;28;20231;-57
2022/07/25 04:45:58;;;;;;;9.27;5.22;;;;;;;;;;5074866;28;20231;-58
2022/07/25 04:48:25;;;;;;;10.50;5.93;;;;;;;;;;5074754;28;20586;-58
2022/07/25 04:50:53;;;;;;;6.05;5.05;;;;;;;;;;5075014;28;20245;-58
2022/07/25 04:53:19;;;;;;;6.07;4.88;;;;;;;;;;5074290;28;20224;-58
2022/07/25 04:55:47;;;;;;;9.35;4.57;;;;;;;;;;5074485;28;20239;-58
2022/07/25 04:58:14;;;;;;;6.60;4.00;;;;;;;;;;5074274;28;20219;-59
2022/07/25 05:00:41;;;;;;;5.07;4.22;;;;;;;;;;5073264;28;20253;-58
2022/07/25 05:03:08;;;;;;;6.15;4.80;;;;;;;;;;5074259;28;20316;-59
2022/07/25 05:05:36;;;;;;;4.93;4.25;;;;;;;;;;5074823;28;20243;-58
2022/07/25 05:08:03;;;;;;;6.03;3.80;;;;;;;;;;5074194;28;20296;-57
2022/07/25 05:10:30;;;;;;;4.70;4.00;;;;;;;;;;5074660;28;20230;-59
2022/07/25 05:12:57;;;;;;;6.05;3.63;;;;;;;;;;5074574;28;20296;-58
2022/07/25 05:15:24;;;;;;;3.65;3.10;;;;;;;;;;5074673;28;20231;-59
2022/07/25 05:17:51;;;;;;;2.10;1.75;;;;;;;;;;5074168;28;20231;-59
2022/07/25 05:20:18;;;;;;;4.28;2.05;;;;;;;;;;5074423;28;20239;-59
2022/07/25 05:22:45;;;;;;;5.60;2.17;;;;;;;;;;5073583;28;20614;-59
2022/07/25 05:25:13;;;;;;;2.95;2.15;;;;;;;;;;5074110;28;20239;-50
2022/07/25 05:27:40;;;;;;;2.83;2.00;;;;;;;;;;5074726;28;20253;-59
2022/07/25 05:30:09;;;;;;;2.13;1.70;;;;;;;;;;5074035;28;20223;-59
2022/07/25 05:32:37;;;;;;;1.80;1.65;;;;;;;;;;5074432;28;20223;-59
2022/07/25 05:35:06;;;;;;;3.40;1.65;;;;;;;;;;5074294;28;20560;-60
2022/07/25 05:37:34;;;;;;;4.75;1.75;;;;;;;;;;5073862;28;20289;-60
2022/07/25 05:40:02;;;;;;;1.70;1.40;;;;;;;;;;5073099;28;20231;-59
2022/07/25 05:42:29;;;;;;;2.45;1.40;;;;;;;;;;5074105;28;20229;-60
2022/07/25 05:44:56;;;;;;;1.83;1.50;;;;;;;;;;5073853;28;20231;-60
2022/07/25 05:47:24;;;;;;;1.60;1.48;;;;;;;;;;5072614;28;20223;-60
2022/07/25 05:49:50;;;;;;;3.13;1.48;;;;;;;;;;5074005;28;20309;-59
2022/07/25 05:52:17;;;;;;;2.35;1.50;;;;;;;;;;5073395;28;20281;-60
2022/07/25 05:54:44;;;;;;;2.70;1.50;;;;;;;;;;5073624;28;20704;-60
2022/07/25 05:57:11;;;;;;;1.98;1.45;;;;;;;;;;5074014;28;20227;-61
2022/07/25 05:59:38;;;;;;;4.13;1.70;;;;;;;;;;5073890;28;20775;-59
2022/07/25 06:02:07;;;;;;;2.22;1.58;;;;;;;;;;5073819;28;20269;-60
2022/07/25 06:04:34;;;;;;;2.88;1.67;;;;;;;;;;5072365;28;20288;-59
2022/07/25 06:07:01;;;;;;;1.70;1.50;;;;;;;;;;5073510;28;20313;-60
2022/07/25 06:09:30;;;;;;;3.15;1.90;;;;;;;;;;5073878;28;20238;-60
2022/07/25 06:11:57;;;;;;;1.70;1.58;;;;;;;;;;5073600;28;20219;-59
2022/07/25 06:14:27;;;;;;;4.43;1.65;;;;;;;;;;5073946;28;20238;-60
2022/07/25 06:16:55;;;;;;;2.58;1.77;;;;;;;;;;5073656;28;20227;-55
2022/07/25 06:19:22;;;;;;;3.60;1.90;;;;;;;;;;5073809;28;20713;-60
2022/07/25 06:21:49;;;;;;;2.03;1.60;;;;;;;;;;5072876;28;20226;-62
2022/07/25 06:24:17;;;;;;;3.40;1.80;;;;;;;;;;5073522;28;20239;-61
2022/07/25 06:26:44;;;;;;;4.05;2.40;;;;;;;;;;5073211;28;20635;-60
2022/07/25 06:29:11;;;;;;;2.40;1.77;;;;;;;;;;5073836;28;20309;-62
2022/07/25 06:31:38;;;;;;;3.97;1.95;;;;;;;;;;5073503;28;20523;-59
2022/07/25 06:34:05;;;;;;;4.85;1.90;;;;;;;;;;5073485;28;20273;-61
2022/07/25 06:36:33;;;;;;;2.75;1.90;;;;;;;;;;5072587;28;20219;-62
2022/07/25 06:39:00;;;;;;;2.05;1.83;;;;;;;;;;5073730;28;20238;-60
2022/07/25 06:41:27;;;;;;;2.95;2.05;;;;;;;;;;5073888;28;20224;-62
2022/07/25 06:43:54;;;;;;;3.92;1.83;;;;;;;;;;5073439;28;20226;-61
2022/07/25 06:46:21;;;;;;;2.70;2.13;;;;;;;;;;5073507;28;20235;-63
2022/07/25 06:48:48;;;;;;;3.97;1.90;;;;;;;;;;5073065;28;20538;-61
2022/07/25 06:51:15;;;;;;;3.60;2.15;;;;;;;;;;5074897;28;20238;-62
2022/07/25 06:53:42;;;;;;;3.53;1.88;;;;;;;;;;5076674;28;20682;-61
2022/07/25 06:56:09;;;;;;;2.63;1.80;;;;;;;;;;5077269;28;20310;-60
2022/07/25 06:58:43;;;;;;;3.55;2.25;;;;;;;;;;5076654;28;20246;-61
2022/07/25 07:01:10;;;;;;;3.22;2.00;;;;;;;;;;5077125;28;20219;-62
2022/07/25 07:03:38;;;;;;;4.63;2.10;;;;;;;;;;5076852;28;20227;-60
2022/07/25 07:06:09;;;;;;;3.15;1.98;;;;;;;;;;5076633;28;20342;-61
2022/07/25 07:08:36;;;;;;;3.70;1.90;;;;;;;;;;5076995;28;20219;-60
2022/07/25 07:11:04;;;;;;;5.95;2.13;;;;;;;;;;5076818;28;20234;-59
2022/07/25 07:13:32;;;;;;;3.00;1.95;;;;;;;;;;5076823;28;20272;-61
2022/07/25 07:15:59;;;;;;;2.47;2.22;;;;;;;;;;5076462;28;20227;-60
2022/07/25 07:18:27;;;;;;;3.60;2.13;;;;;;;;;;5076893;28;20235;-60
2022/07/25 07:20:54;;;;;;;2.92;2.08;;;;;;;;;;5076013;28;20239;-61
2022/07/25 07:23:21;;;;;;;3.33;2.25;;;;;;;;;;5076296;28;20693;-60
2022/07/25 07:25:50;;;;;;;3.05;2.40;;;;;;;;;;5076271;28;20231;-60
2022/07/25 07:28:17;;;;;;;3.70;1.77;;;;;;;;;;5076670;28;20223;-61
2022/07/25 07:30:45;;;;;;;2.90;1.80;;;;;;;;;;5085295;28;20230;-61
2022/07/25 07:33:32;;;;;;;3.05;1.88;;;;;;;;;;5076252;28;20234;-62
2022/07/25 07:36:00;;;;;;;3.03;1.83;;;;;;;;;;5076862;28;20265;-62
2022/07/25 07:38:27;;;;;;;5.03;1.95;;;;;;;;;;5076962;28;20660;-62
2022/07/25 07:40:54;;;;;;;3.13;2.50;;;;;;;;;;5076482;28;20221;-62
2022/07/25 07:43:21;;;;;;;2.72;1.92;;;;;;;;;;5077257;28;20199;-62
2022/07/25 07:45:57;;;;;;;2.97;2.00;;;;;;;;;;5077247;28;20211;-63
2022/07/25 07:48:29;;;;;;;4.63;2.10;;;;;;;;;;5076824;28;20631;-61
2022/07/25 07:50:56;;;;;;;3.35;2.20;;;;;;;;;;5077437;28;20184;-62
2022/07/25 07:55:42;;;;;;;2.90;1.92;;;;;;;;;;5076425;28;20614;-63
2022/07/25 07:56:11;;;;;;;6.40;2.28;;;;;;;;;;5076723;28;20195;-62
2022/07/25 07:58:38;;;;;;;3.67;1.98;;;;;;;;;;5076582;28;20238;-61
2022/07/25 08:01:05;;;;;;;3.45;2.00;;;;;;;;;;5077049;28;20561;-62
2022/07/25 08:03:32;;;;;;;3.97;2.25;;;;;;;;;;5075986;28;20289;-62
2022/07/25 08:05:59;;;;;;;2.65;2.30;;;;;;;;;;5076722;28;20234;-62
2022/07/25 08:08:26;;;;;;;2.63;1.90;;;;;;;;;;5076574;28;20268;-62
2022/07/25 08:10:57;;;;;;;3.38;2.08;;;;;;;;;;5076705;28;20257;-62
2022/07/25 08:13:29;;;;;;;2.50;2.10;;;;;;;;;;5076800;28;20203;-62
2022/07/25 08:15:58;;;;;;;2.33;2.00;;;;;;;;;;5076791;28;20191;-62
2022/07/25 08:18:28;;;;;;;3.95;1.70;;;;;;;;;;5076287;28;20242;-62
2022/07/25 08:20:56;;;;;;;3.92;2.00;;;;;;;;;;5076428;28;20184;-62
2022/07/25 08:23:24;;;;;;;2.13;1.80;;;;;;;;;;5076141;28;20219;-62
2022/07/25 08:25:51;;;;;;;2.47;1.90;;;;;;;;;;5075985;28;20742;-62
2022/07/25 08:28:18;;;;;;;3.70;1.73;;;;;;;;;;5076228;28;20298;-62
2022/07/25 08:30:45;;;;;;;5.18;2.10;;;;;;;;;;5075921;28;20272;-62
2022/07/25 08:33:14;;;;;;;3.70;1.65;;;;;;;;;;5076211;28;20521;-62
2022/07/25 08:35:47;;;;;;;2.85;2.00;;;;;;;;;;5076146;28;20265;-62
2022/07/25 08:38:14;;;;;;;7.18;2.10;;;;;;;;;;5076137;28;20183;-61
2022/07/25 08:40:41;;;;;;;3.30;2.00;;;;;;;;;;5075694;28;20202;-62
2022/07/25 08:43:13;;;;;;;3.40;2.20;;;;;;;;;;5075976;28;20199;-62
2022/07/25 08:45:44;;;;;;;2.28;1.90;;;;;;;;;;5075894;28;20245;-64
2022/07/25 08:48:12;;;;;;;2.63;2.00;;;;;;;;;;5075866;28;20211;-62
2022/07/25 08:50:39;;;;;;;3.85;2.38;;;;;;;;;;5075827;28;20227;-62
2022/07/25 08:53:06;;;;;;;2.80;2.13;;;;;;;;;;5075835;28;20280;-62
2022/07/25 08:55:53;;;;;;;2.00;1.63;;;;;;;;;;5075754;28;20199;-62
2022/07/25 08:58:21;;;;;;;2.88;1.83;;;;;;;;;;5075020;28;20591;-60
2022/07/25 09:00:48;;;;;;;2.20;2.00;;;;;;;;;;5075961;28;20278;-63
2022/07/25 09:03:14;;;;;;;3.35;1.90;;;;;;;;;;5075994;28;20211;-62
2022/07/25 09:05:43;;;;;;;2.20;2.00;;;;;;;;;;5075485;28;20231;-63
2022/07/25 09:08:12;;;;;;;3.03;1.90;;;;;;;;;;5075486;28;20204;-62
2022/07/25 09:10:48;;;;;;;3.58;2.00;;;;;;;;;;5075465;28;20203;-63
2022/07/25 09:13:17;;;;;;;3.03;2.40;;;;;;;;;;5075093;28;20610;-63
2022/07/25 09:15:55;;;;;;;2.28;1.70;;;;;;;;;;5074140;28;20269;-62
2022/07/25 09:18:25;;;;;;;4.70;2.10;;;;;;;;;;5075007;28;20199;-62
2022/07/25 09:20:53;;;;;;;3.10;1.90;;;;;;;;;;5075306;28;20215;-63
2022/07/25 09:23:27;;;;;;;4.68;2.00;;;;;;;;;;5074913;28;20211;-61
2022/07/25 09:26:04;;;;;;;4.15;1.90;;;;;;;;;;5074115;28;20218;-63
2022/07/25 09:28:39;;;;;;;3.33;2.10;;;;;;;;;;5075278;28;20195;-63
2022/07/25 09:31:08;;;;;;;4.25;1.88;;;;;;;;;;5075392;28;20586;-63
2022/07/25 09:33:45;;;;;;;2.47;2.00;;;;;;;;;;5074911;28;20524;-62
2022/07/25 09:36:13;;;;;;;2.97;1.65;;;;;;;;;;5075095;28;20214;-62
2022/07/25 09:38:40;;;;;;;2.90;1.88;;;;;;;;;;5074784;28;20249;-63
2022/07/25 09:41:07;;;;;;;3.03;1.85;;;;;;;;;;5074264;28;20203;-62
2022/07/25 09:43:38;;;;;;;5.05;2.05;;;;;;;;;;5075342;28;20260;-62
2022/07/25 09:46:06;;;;;;;2.95;2.10;;;;;;;;;;5075085;28;20207;-62
2022/07/25 09:48:34;;;;;;;3.22;1.80;;;;;;;;;;5074503;28;20572;-62
2022/07/25 09:51:02;;;;;;;4.28;1.75;;;;;;;;;;5075041;28;20192;-63
2022/07/25 09:53:29;;;;;;;1.83;1.60;;;;;;;;;;5074635;28;20195;-62
2022/07/25 09:55:56;;;;;;;3.35;2.15;;;;;;;;;;5074909;28;20497;-63
2022/07/25 09:58:24;;;;;;;2.80;2.25;;;;;;;;;;5074166;28;20203;-62
2022/07/25 10:00:54;;;;;;;3.42;2.05;;;;;;;;;;5074935;28;20207;-63
2022/07/25 10:03:42;;;;;;;2.13;1.90;;;;;;;;;;5075154;28;20486;-63
2022/07/25 10:06:46;;;;;;;2.45;1.80;;;;;;;;;;5074360;28;20238;-62
2022/07/25 10:09:14;;;;;;;2.13;1.92;;;;;;;;;;5074313;28;20562;-62
2022/07/25 10:12:04;;;;;;;2.22;1.65;;;;;;;;;;5073845;28;20272;-62
2022/07/25 10:14:32;;;;;;;5.05;1.70;;;;;;;;;;5074974;28;20198;-62
2022/07/25 10:17:02;;;;;;;3.83;1.90;;;;;;;;;;5074502;28;20211;-63
2022/07/25 10:19:39;;;;;;;5.55;2.30;;;;;;;;;;5073820;28;20188;-63
2022/07/25 10:22:10;;;;;;;2.63;2.13;;;;;;;;;;5074254;28;20195;-63
2022/07/25 10:24:38;;;;;;;2.78;1.88;;;;;;;;;;5073690;28;20203;-63
2022/07/25 10:27:10;;;;;;;2.22;1.55;;;;;;;;;;5077225;28;20611;-64
2022/07/25 10:29:41;;;;;;;2.08;1.48;;;;;;;;;;5078856;28;20540;-63
2022/07/25 10:32:10;;;;;;;2.13;1.88;;;;;;;;;;5078089;28;20269;-62
2022/07/25 10:34:38;;;;;;;3.08;1.90;;;;;;;;;;5078883;28;20214;-62
2022/07/25 10:37:14;;;;;;;4.47;1.95;;;;;;;;;;5078630;28;20207;-62
2022/07/25 10:39:45;;;;;;;4.07;1.80;;;;;;;;;;5078523;28;20199;-61
2022/07/25 10:42:14;;;;;;;2.17;1.60;;;;;;;;;;5078462;28;20235;-61
2022/07/25 10:44:44;;;;;;;8.45;2.33;;;;;;;;;;5078148;28;20202;-62
2022/07/25 10:47:13;;;;;;;2.30;1.70;;;;;;;;;;5077930;28;20227;-61
2022/07/25 10:49:46;;;;;;;2.17;1.75;;;;;;;;;;5078534;28;20328;-61
2022/07/25 10:52:40;;;;;;;2.70;1.80;;;;;;;;;;5078281;28;20229;-62
2022/07/25 10:55:07;;;;;;;3.85;1.73;;;;;;;;;;5077856;28;20199;-62
2022/07/25 10:57:34;;;;;;;2.22;2.03;;;;;;;;;;5077307;28;20203;-60
2022/07/25 11:00:08;;;;;;;3.45;1.90;;;;;;;;;;5077975;28;20238;-60
2022/07/25 11:02:35;;;;;;;3.53;1.77;;;;;;;;;;5078028;28;20277;-60
2022/07/25 11:05:03;;;;;;;2.25;2.05;;;;;;;;;;5077786;28;20203;-61
2022/07/25 11:07:34;;;;;;;2.78;2.03;;;;;;;;;;5077678;28;20223;-60
2022/07/25 11:10:04;;;;;;;2.78;1.50;;;;;;;;;;5078249;28;20196;-61
2022/07/25 11:12:32;;;;;;;2.95;2.03;;;;;;;;;;5077909;28;20206;-60
2022/07/25 11:15:01;;;;;;;2.20;1.88;;;;;;;;;;5077744;28;20290;-61
2022/07/25 11:17:29;;;;;;;1.55;1.42;;;;;;;;;;5077747;28;20214;-60
2022/07/25 11:19:57;;;;;;;2.35;1.80;;;;;;;;;;5077392;28;20268;-59
2022/07/25 11:22:25;;;;;;;4.88;1.90;;;;;;;;;;5086269;28;20665;-60
2022/07/25 11:24:52;;;;;;;5.32;2.00;;;;;;;;;;5097913;28;20198;-60
2022/07/25 11:27:26;;;;;;;5.38;1.70;;;;;;;;;;5098122;28;20233;-60
2022/07/25 11:30:13;;;;;;;3.88;2.00;;;;;;;;;;5097762;28;20201;-60
2022/07/25 11:32:45;;;;;;;3.53;1.90;;;;;;;;;;5097549;28;20590;-60
2022/07/25 11:35:13;;;;;;;6.93;1.88;;;;;;;;;;5097937;28;20198;-60
2022/07/25 11:37:47;;;;;;;5.30;2.10;;;;;;;;;;5096550;28;20203;-59
2022/07/25 11:40:15;;;;;;;15.40;2.17;;;;;;;;;;5097829;28;20183;-59
2022/07/25 11:42:45;;;;;;;2.47;1.80;;;;;;;;;;5097238;28;20758;-59
2022/07/25 11:45:25;;;;;;;4.65;1.90;;;;;;;;;;5097468;28;20203;-59
2022/07/25 11:48:10;;;;;;;5.35;1.83;;;;;;;;;;5097885;28;20520;-60
2022/07/25 11:50:39;;;;;;;2.83;1.75;;;;;;;;;;5097429;28;20238;-59
2022/07/25 11:53:08;;;;;;;2.20;1.60;;;;;;;;;;5091034;28;20200;-61
2022/07/25 11:55:41;;;;;;;7.60;2.17;;;;;;;;;;5075714;28;20717;-60
2022/07/25 11:58:10;;;;;;;7.78;1.80;;;;;;;;;;5072534;28;20312;-61
2022/07/25 12:00:47;;;;;;;49.17;3.97;;;;;;;;;;5077174;28;20231;-61
2022/07/25 12:03:16;;;;;;;2.08;1.70;;;;;;;;;;5077392;28;20369;-61
2022/07/25 12:05:47;;;;;;;10.23;2.20;;;;;;;;;;5076535;28;20192;-61
2022/07/25 12:08:15;;;;;;;3.92;1.55;;;;;;;;;;5076977;28;20524;-61
2022/07/25 12:10:46;;;;;;;10.52;2.15;;;;;;;;;;5076635;28;20207;-62
2022/07/25 12:13:22;;;;;;;2.55;1.55;;;;;;;;;;5076651;28;20636;-61
2022/07/25 12:15:49;;;;;;;5.38;1.92;;;;;;;;;;5076434;28;20320;-62
2022/07/25 12:18:17;;;;;;;6.65;1.70;;;;;;;;;;5076653;28;20207;-61
2022/07/25 12:20:44;;;;;;;2.85;1.83;;;;;;;;;;5076521;28;20196;-61
2022/07/25 12:23:12;;;;;;;1.92;1.45;;;;;;;;;;5089846;28;20194;-61
2022/07/25 12:25:42;;;;;;;2.15;1.67;;;;;;;;;;5071819;28;20279;-61
2022/07/25 12:28:10;;;;;;;2.60;1.70;;;;;;;;;;5076069;28;20187;-61
2022/07/25 12:30:39;;;;;;;3.67;1.70;;;;;;;;;;5070289;28;20232;-61
2022/07/25 12:33:06;;;;;;;10.70;1.70;;;;;;;;;;5074225;28;20238;-61
2022/07/25 12:35:36;;;;;;;6.55;2.00;;;;;;;;;;5081642;28;20229;-60
2022/07/25 12:38:03;;;;;;;6.28;1.83;;;;;;;;;;5075010;28;20755;-62
2022/07/25 12:40:30;;;;;;;4.28;1.67;;;;;;;;;;5074840;28;20606;-60
2022/07/25 12:42:59;;;;;;;3.38;1.60;;;;;;;;;;5074656;28;20670;-61
2022/07/25 12:45:27;;;;;;;3.92;1.67;;;;;;;;;;5074275;28;20227;-61
2022/07/25 12:47:54;;;;;;;6.32;1.60;;;;;;;;;;5074937;28;20238;-61
2022/07/25 12:50:24;;;;;;;3.70;1.73;;;;;;;;;;5075001;28;20239;-61
2022/07/25 12:52:52;;;;;;;2.20;1.70;;;;;;;;;;5074899;28;20239;-61
2022/07/25 12:55:19;;;;;;;2.72;1.80;;;;;;;;;;5075131;28;20219;-60
2022/07/25 12:57:47;;;;;;;2.28;1.60;;;;;;;;;;5074823;28;20230;-60
2022/07/25 13:00:17;;;;;;;2.83;1.80;;;;;;;;;;5073902;28;20246;-60
2022/07/25 13:02:45;;;;;;;2.35;1.48;;;;;;;;;;5074461;28;20219;-60
2022/07/25 13:05:12;;;;;;;3.15;1.50;;;;;;;;;;5072876;28;20241;-60
2022/07/25 13:07:39;;;;;;;5.68;1.60;;;;;;;;;;5073515;28;20577;-60
2022/07/25 13:10:07;;;;;;;2.25;1.38;;;;;;;;;;5074771;28;20227;-60
2022/07/25 13:12:34;;;;;;;4.43;1.63;;;;;;;;;;5074030;28;20561;-60
2022/07/25 13:15:01;;;;;;;1.92;1.50;;;;;;;;;;5073934;28;20246;-60
2022/07/25 13:17:28;;;;;;;2.85;1.38;;;;;;;;;;5072876;28;20222;-60
2022/07/25 13:19:55;;;;;;;2.90;1.70;;;;;;;;;;5072374;28;20640;-60
2022/07/25 13:22:24;;;;;;;2.90;1.70;;;;;;;;;;5072624;28;20257;-61
2022/07/25 13:24:52;;;;;;;2.13;1.60;;;;;;;;;;5074199;28;20219;-61
2022/07/25 13:27:20;;;;;;;4.53;1.83;;;;;;;;;;5073373;28;20234;-61
2022/07/25 13:29:56;;;;;;;2.15;1.50;;;;;;;;;;5072997;28;20230;-62
2022/07/25 13:32:25;;;;;;;3.75;1.70;;;;;;;;;;5072519;28;20552;-61
2022/07/25 13:34:52;;;;;;;2.80;1.50;;;;;;;;;;5074178;28;20276;-61
2022/07/25 13:37:19;;;;;;;2.83;1.38;;;;;;;;;;5074121;28;20686;-62
2022/07/25 13:39:47;;;;;;;3.25;1.60;;;;;;;;;;5074444;28;20227;-62
2022/07/25 13:42:14;;;;;;;2.75;1.65;;;;;;;;;;5074036;28;20685;-61
2022/07/25 13:44:42;;;;;;;3.88;1.80;;;;;;;;;;5072876;28;20596;-61
2022/07/25 13:47:09;;;;;;;2.22;1.67;;;;;;;;;;5073900;28;20665;-61
2022/07/25 13:49:36;;;;;;;3.38;1.70;;;;;;;;;;5072393;28;20807;-60
2022/07/25 13:52:04;;;;;;;2.75;1.80;;;;;;;;;;5072610;28;20231;-61
2022/07/25 13:54:31;;;;;;;4.05;1.58;;;;;;;;;;5072367;28;20223;-62
2022/07/25 13:56:58;;;;;;;5.60;1.88;;;;;;;;;;5086173;28;20235;-64
2022/07/25 13:59:25;;;;;;;2.28;1.77;;;;;;;;;;5052078;28;20726;-63
2022/07/25 14:01:52;;;;;;;2.92;1.83;;;;;;;;;;5053358;28;20685;-61
2022/07/25 14:04:19;;;;;;;4.30;1.75;;;;;;;;;;5053801;28;20232;-59
2022/07/25 14:06:50;;;;;;;2.95;1.70;;;;;;;;;;5054247;28;20250;-61
2022/07/25 14:09:19;;;;;;;4.50;1.60;;;;;;;;;;5052750;28;20235;-60
2022/07/25 14:11:47;;;;;;;2.15;1.58;;;;;;;;;;5053960;28;20236;-61
2022/07/25 14:14:14;;;;;;;2.83;1.60;;;;;;;;;;5053254;28;20242;-59
2022/07/25 14:16:41;;;;;;;2.08;1.50;;;;;;;;;;5065249;28;20300;-59
2022/07/25 14:19:09;;;;;;;4.20;1.90;;;;;;;;;;5071801;28;20227;-59
2022/07/25 14:21:36;;;;;;;2.05;1.50;;;;;;;;;;5073161;28;20302;-58
2022/07/25 14:24:04;;;;;;;3.47;1.60;;;;;;;;;;5074328;28;20324;-60
2022/07/25 14:26:33;;;;;;;2.45;1.60;;;;;;;;;;5082071;28;20214;-59
2022/07/25 14:29:00;;;;;;;3.88;1.95;;;;;;;;;;5067528;28;20231;-61
2022/07/25 14:31:27;;;;;;;2.67;1.67;;;;;;;;;;5079616;28;20219;-55
2022/07/25 14:33:54;;;;;;;2.53;1.60;;;;;;;;;;5081896;28;20227;-60
2022/07/25 14:36:21;;;;;;;3.10;1.50;;;;;;;;;;5080365;28;20238;-59
2022/07/25 14:38:48;;;;;;;1.73;1.50;;;;;;;;;;5082090;28;20327;-52
2022/07/25 14:41:16;;;;;;;1.83;1.50;;;;;;;;;;5077428;28;20226;-50
2022/07/25 14:43:43;;;;;;;3.08;1.60;;;;;;;;;;5082050;28;20230;-57
2022/07/25 14:46:10;;;;;;;3.03;1.45;;;;;;;;;;5073724;28;20661;-58
2022/07/25 14:48:38;;;;;;;2.47;1.70;;;;;;;;;;5072913;28;20249;-57
2022/07/25 14:51:06;;;;;;;7.15;1.73;;;;;;;;;;5074064;28;20231;-58